Webcam Richtung Westen

Webcam27

Webcam Richtung Norden

Webcam36

Webcam Richtung Osten

Webcam09

Wetter(Würzburg):
221400Z AUTO 28011G18KT 70KM BKN058 OVC200 OVC240 17/04 Q1021
		
Sat 22.09.2018, 14:00 UTC

Sichtweite bis zu 70 km
Wind aus 280° mit 11kt, in Böen bis zu 18kt
unterbrochene Wolkendecke (5-7 Achtel) bei 5800 Fuß
bedeckter Himmel (8 Achtel) bei 20000 Fuß
bedeckter Himmel (8 Achtel) bei 24000 Fuß
Temperatur: 17 °C
Taupunkt: 4 °C
QNH: 1021 hPa
                         Heute        Morgen
                         22.09        23.09
--------------------------------------------
Beginn der Dämmerung     04:34        04:35
Sonnenaufgang            05:06        05:07
Sonnenuntergang          17:20        17:18
Ende der Dämmerung       17:52        17:50

Alle Zeiten in UTC